sensor_id;sensor_type;location;lat;lon;timestamp;temperature;humidity
43995;DHT22;51687;52.160;5.298;2023-03-23T00:02:14;15.10;70.80
43995;DHT22;51687;52.160;5.298;2023-03-23T00:04:41;15.10;70.70
43995;DHT22;51687;52.160;5.298;2023-03-23T00:07:08;15.10;70.60
43995;DHT22;51687;52.160;5.298;2023-03-23T00:09:34;15.20;70.50
43995;DHT22;51687;52.160;5.298;2023-03-23T00:12:00;15.10;70.40
43995;DHT22;51687;52.160;5.298;2023-03-23T00:14:32;15.10;70.30
43995;DHT22;51687;52.160;5.298;2023-03-23T00:17:08;15.10;70.30
43995;DHT22;51687;52.160;5.298;2023-03-23T00:19:37;15.10;70.30
43995;DHT22;51687;52.160;5.298;2023-03-23T00:22:13;15.10;70.30
43995;DHT22;51687;52.160;5.298;2023-03-23T00:24:39;15.20;70.20
43995;DHT22;51687;52.160;5.298;2023-03-23T00:27:05;15.20;70.00
43995;DHT22;51687;52.160;5.298;2023-03-23T00:29:34;15.20;69.90
43995;DHT22;51687;52.160;5.298;2023-03-23T00:32:00;15.20;69.70
43995;DHT22;51687;52.160;5.298;2023-03-23T00:34:27;15.20;69.60
43995;DHT22;51687;52.160;5.298;2023-03-23T00:36:58;15.20;69.40
43995;DHT22;51687;52.160;5.298;2023-03-23T00:39:25;15.20;69.30
43995;DHT22;51687;52.160;5.298;2023-03-23T00:41:53;15.20;69.40
43995;DHT22;51687;52.160;5.298;2023-03-23T00:44:27;15.20;69.30
43995;DHT22;51687;52.160;5.298;2023-03-23T00:46:54;15.20;69.20
43995;DHT22;51687;52.160;5.298;2023-03-23T00:49:23;15.20;69.10
43995;DHT22;51687;52.160;5.298;2023-03-23T00:51:54;15.20;68.90
43995;DHT22;51687;52.160;5.298;2023-03-23T00:54:21;15.10;68.90
43995;DHT22;51687;52.160;5.298;2023-03-23T00:56:47;15.10;68.90
43995;DHT22;51687;52.160;5.298;2023-03-23T00:59:12;15.20;68.80
43995;DHT22;51687;52.160;5.298;2023-03-23T01:01:38;15.20;68.80
43995;DHT22;51687;52.160;5.298;2023-03-23T01:04:04;15.20;68.70
43995;DHT22;51687;52.160;5.298;2023-03-23T01:06:33;15.20;68.70
43995;DHT22;51687;52.160;5.298;2023-03-23T01:09:01;15.20;68.40
43995;DHT22;51687;52.160;5.298;2023-03-23T01:11:28;15.20;68.50
43995;DHT22;51687;52.160;5.298;2023-03-23T01:13:55;15.20;68.40
43995;DHT22;51687;52.160;5.298;2023-03-23T01:16:21;15.20;68.30
43995;DHT22;51687;52.160;5.298;2023-03-23T01:18:46;15.20;68.60
43995;DHT22;51687;52.160;5.298;2023-03-23T01:21:14;15.30;68.30
43995;DHT22;51687;52.160;5.298;2023-03-23T01:23:42;15.20;68.10
43995;DHT22;51687;52.160;5.298;2023-03-23T01:26:10;15.30;68.20
43995;DHT22;51687;52.160;5.298;2023-03-23T01:28:36;15.30;68.00
43995;DHT22;51687;52.160;5.298;2023-03-23T01:31:04;15.30;67.90
43995;DHT22;51687;52.160;5.298;2023-03-23T01:33:30;15.30;67.90
43995;DHT22;51687;52.160;5.298;2023-03-23T01:35:57;15.30;67.70
43995;DHT22;51687;52.160;5.298;2023-03-23T01:38:23;15.30;67.70
43995;DHT22;51687;52.160;5.298;2023-03-23T01:40:48;15.30;67.60
43995;DHT22;51687;52.160;5.298;2023-03-23T01:43:15;15.30;67.70
43995;DHT22;51687;52.160;5.298;2023-03-23T01:45:41;15.40;67.60
43995;DHT22;51687;52.160;5.298;2023-03-23T01:48:15;15.40;67.90
43995;DHT22;51687;52.160;5.298;2023-03-23T01:51:06;15.30;67.30
43995;DHT22;51687;52.160;5.298;2023-03-23T01:53:45;15.30;67.40
43995;DHT22;51687;52.160;5.298;2023-03-23T01:56:13;15.40;67.30
43995;DHT22;51687;52.160;5.298;2023-03-23T01:58:40;15.40;67.30
43995;DHT22;51687;52.160;5.298;2023-03-23T02:01:09;15.40;67.90
43995;DHT22;51687;52.160;5.298;2023-03-23T02:03:41;15.40;67.10
43995;DHT22;51687;52.160;5.298;2023-03-23T02:06:07;15.50;67.00
43995;DHT22;51687;52.160;5.298;2023-03-23T02:08:33;15.40;66.80
43995;DHT22;51687;52.160;5.298;2023-03-23T02:11:00;15.40;67.40
43995;DHT22;51687;52.160;5.298;2023-03-23T02:13:26;15.40;66.90
43995;DHT22;51687;52.160;5.298;2023-03-23T02:16:02;15.40;66.90
43995;DHT22;51687;52.160;5.298;2023-03-23T02:18:38;15.40;67.10
43995;DHT22;51687;52.160;5.298;2023-03-23T02:27:10;15.30;66.80
43995;DHT22;51687;52.160;5.298;2023-03-23T02:30:09;15.30;66.90
43995;DHT22;51687;52.160;5.298;2023-03-23T02:42:05;15.30;67.50
43995;DHT22;51687;52.160;5.298;2023-03-23T02:44:34;15.40;67.00
43995;DHT22;51687;52.160;5.298;2023-03-23T02:47:03;15.30;67.00
43995;DHT22;51687;52.160;5.298;2023-03-23T02:49:31;15.30;67.00
43995;DHT22;51687;52.160;5.298;2023-03-23T02:52:08;15.30;67.20
43995;DHT22;51687;52.160;5.298;2023-03-23T02:54:35;15.30;67.20
43995;DHT22;51687;52.160;5.298;2023-03-23T02:57:01;15.30;67.00
43995;DHT22;51687;52.160;5.298;2023-03-23T02:59:28;15.30;67.20
43995;DHT22;51687;52.160;5.298;2023-03-23T03:02:17;15.30;66.90
43995;DHT22;51687;52.160;5.298;2023-03-23T03:07:35;15.30;66.80
43995;DHT22;51687;52.160;5.298;2023-03-23T03:13:03;15.30;66.60
43995;DHT22;51687;52.160;5.298;2023-03-23T03:15:40;15.30;67.20
43995;DHT22;51687;52.160;5.298;2023-03-23T03:18:22;15.30;66.60
43995;DHT22;51687;52.160;5.298;2023-03-23T03:20:53;15.30;66.70
43995;DHT22;51687;52.160;5.298;2023-03-23T03:23:22;15.30;66.40
43995;DHT22;51687;52.160;5.298;2023-03-23T03:25:49;15.30;66.40
43995;DHT22;51687;52.160;5.298;2023-03-23T03:28:20;15.30;66.40
43995;DHT22;51687;52.160;5.298;2023-03-23T03:30:52;15.40;66.30
43995;DHT22;51687;52.160;5.298;2023-03-23T03:33:20;15.30;66.10
43995;DHT22;51687;52.160;5.298;2023-03-23T03:35:51;15.30;66.10
43995;DHT22;51687;52.160;5.298;2023-03-23T03:38:18;15.30;66.20
43995;DHT22;51687;52.160;5.298;2023-03-23T03:40:46;15.30;66.20
43995;DHT22;51687;52.160;5.298;2023-03-23T03:43:11;15.30;66.00
43995;DHT22;51687;52.160;5.298;2023-03-23T03:45:37;15.30;66.10
43995;DHT22;51687;52.160;5.298;2023-03-23T03:48:03;15.30;65.70
43995;DHT22;51687;52.160;5.298;2023-03-23T03:50:29;15.30;65.90
43995;DHT22;51687;52.160;5.298;2023-03-23T03:52:54;15.30;66.00
43995;DHT22;51687;52.160;5.298;2023-03-23T03:55:20;15.30;66.20
43995;DHT22;51687;52.160;5.298;2023-03-23T03:57:46;15.40;65.90
43995;DHT22;51687;52.160;5.298;2023-03-23T04:00:12;15.30;66.10
43995;DHT22;51687;52.160;5.298;2023-03-23T04:02:45;15.40;65.80
43995;DHT22;51687;52.160;5.298;2023-03-23T04:05:16;15.40;65.60
43995;DHT22;51687;52.160;5.298;2023-03-23T04:07:41;15.30;65.70
43995;DHT22;51687;52.160;5.298;2023-03-23T04:10:09;15.40;65.60
43995;DHT22;51687;52.160;5.298;2023-03-23T04:12:35;15.40;65.80
43995;DHT22;51687;52.160;5.298;2023-03-23T04:15:02;15.40;65.60
43995;DHT22;51687;52.160;5.298;2023-03-23T04:17:28;15.40;65.70
43995;DHT22;51687;52.160;5.298;2023-03-23T04:19:54;15.40;65.60
43995;DHT22;51687;52.160;5.298;2023-03-23T04:22:25;15.40;65.40
43995;DHT22;51687;52.160;5.298;2023-03-23T04:24:59;15.40;65.00
43995;DHT22;51687;52.160;5.298;2023-03-23T04:27:26;15.40;65.50
43995;DHT22;51687;52.160;5.298;2023-03-23T04:29:55;15.40;65.30
43995;DHT22;51687;52.160;5.298;2023-03-23T04:32:22;15.40;65.30
43995;DHT22;51687;52.160;5.298;2023-03-23T04:34:47;15.40;66.80
43995;DHT22;51687;52.160;5.298;2023-03-23T04:37:14;15.40;65.20
43995;DHT22;51687;52.160;5.298;2023-03-23T04:39:39;15.40;64.70
43995;DHT22;51687;52.160;5.298;2023-03-23T04:42:07;15.40;64.70
43995;DHT22;51687;52.160;5.298;2023-03-23T04:44:32;15.40;64.60
43995;DHT22;51687;52.160;5.298;2023-03-23T04:47:01;15.40;64.40
43995;DHT22;51687;52.160;5.298;2023-03-23T04:49:26;15.40;64.60
43995;DHT22;51687;52.160;5.298;2023-03-23T04:51:52;15.40;64.50
43995;DHT22;51687;52.160;5.298;2023-03-23T04:54:18;15.40;64.20
43995;DHT22;51687;52.160;5.298;2023-03-23T04:56:44;15.40;63.80
43995;DHT22;51687;52.160;5.298;2023-03-23T04:59:10;15.30;64.10
43995;DHT22;51687;52.160;5.298;2023-03-23T05:01:39;15.30;64.40
43995;DHT22;51687;52.160;5.298;2023-03-23T05:04:05;15.30;64.00
43995;DHT22;51687;52.160;5.298;2023-03-23T05:06:31;15.30;64.30
43995;DHT22;51687;52.160;5.298;2023-03-23T05:08:57;15.40;65.00
43995;DHT22;51687;52.160;5.298;2023-03-23T05:11:22;15.40;65.40
43995;DHT22;51687;52.160;5.298;2023-03-23T05:13:48;15.40;65.50
43995;DHT22;51687;52.160;5.298;2023-03-23T05:16:14;15.50;65.70
43995;DHT22;51687;52.160;5.298;2023-03-23T05:18:40;15.40;65.30
43995;DHT22;51687;52.160;5.298;2023-03-23T05:21:05;15.40;65.40
43995;DHT22;51687;52.160;5.298;2023-03-23T05:23:31;15.30;66.60
43995;DHT22;51687;52.160;5.298;2023-03-23T05:25:59;15.30;67.30
43995;DHT22;51687;52.160;5.298;2023-03-23T05:28:28;15.30;67.70
43995;DHT22;51687;52.160;5.298;2023-03-23T05:30:56;15.30;68.10
43995;DHT22;51687;52.160;5.298;2023-03-23T05:33:22;15.30;68.60
43995;DHT22;51687;52.160;5.298;2023-03-23T05:35:48;15.30;68.50
43995;DHT22;51687;52.160;5.298;2023-03-23T05:38:14;15.10;68.50
43995;DHT22;51687;52.160;5.298;2023-03-23T05:40:41;15.10;69.30
43995;DHT22;51687;52.160;5.298;2023-03-23T05:43:10;15.00;70.10
43995;DHT22;51687;52.160;5.298;2023-03-23T05:45:36;15.00;70.50
43995;DHT22;51687;52.160;5.298;2023-03-23T05:48:01;15.00;70.70
43995;DHT22;51687;52.160;5.298;2023-03-23T05:50:27;15.10;70.70
43995;DHT22;51687;52.160;5.298;2023-03-23T05:52:55;15.10;70.60
43995;DHT22;51687;52.160;5.298;2023-03-23T05:55:21;15.10;70.50
43995;DHT22;51687;52.160;5.298;2023-03-23T05:57:46;15.10;70.50
43995;DHT22;51687;52.160;5.298;2023-03-23T06:00:13;15.10;70.70
43995;DHT22;51687;52.160;5.298;2023-03-23T06:02:39;15.10;70.90
43995;DHT22;51687;52.160;5.298;2023-03-23T06:05:09;15.10;70.90
43995;DHT22;51687;52.160;5.298;2023-03-23T06:07:36;15.10;71.00
43995;DHT22;51687;52.160;5.298;2023-03-23T06:10:04;15.00;71.30
43995;DHT22;51687;52.160;5.298;2023-03-23T06:12:30;15.10;71.40
43995;DHT22;51687;52.160;5.298;2023-03-23T06:14:56;15.00;71.50
43995;DHT22;51687;52.160;5.298;2023-03-23T06:17:22;15.00;71.70
43995;DHT22;51687;52.160;5.298;2023-03-23T06:19:48;15.00;71.40
43995;DHT22;51687;52.160;5.298;2023-03-23T06:22:16;14.90;71.40
43995;DHT22;51687;52.160;5.298;2023-03-23T06:24:43;14.80;71.40
43995;DHT22;51687;52.160;5.298;2023-03-23T06:27:09;14.80;71.40
43995;DHT22;51687;52.160;5.298;2023-03-23T06:29:36;14.80;71.70
43995;DHT22;51687;52.160;5.298;2023-03-23T06:32:03;14.80;72.40
43995;DHT22;51687;52.160;5.298;2023-03-23T06:34:30;14.70;72.00
43995;DHT22;51687;52.160;5.298;2023-03-23T06:36:56;14.70;72.10
43995;DHT22;51687;52.160;5.298;2023-03-23T06:39:22;14.70;72.40
43995;DHT22;51687;52.160;5.298;2023-03-23T06:41:48;14.70;72.40
43995;DHT22;51687;52.160;5.298;2023-03-23T06:44:14;14.70;72.70
43995;DHT22;51687;52.160;5.298;2023-03-23T06:46:41;14.70;72.70
43995;DHT22;51687;52.160;5.298;2023-03-23T06:49:07;14.70;72.90
43995;DHT22;51687;52.160;5.298;2023-03-23T06:51:32;14.60;73.10
43995;DHT22;51687;52.160;5.298;2023-03-23T06:53:58;14.60;73.10
43995;DHT22;51687;52.160;5.298;2023-03-23T06:56:24;14.60;73.30
43995;DHT22;51687;52.160;5.298;2023-03-23T06:58:50;14.60;73.30
43995;DHT22;51687;52.160;5.298;2023-03-23T07:01:16;14.60;73.30
43995;DHT22;51687;52.160;5.298;2023-03-23T07:03:42;14.60;73.40
43995;DHT22;51687;52.160;5.298;2023-03-23T07:06:09;14.60;73.40
43995;DHT22;51687;52.160;5.298;2023-03-23T07:08:35;14.70;73.50
43995;DHT22;51687;52.160;5.298;2023-03-23T07:11:02;14.70;73.20
43995;DHT22;51687;52.160;5.298;2023-03-23T07:13:28;14.70;73.40
43995;DHT22;51687;52.160;5.298;2023-03-23T07:15:54;14.70;73.40
43995;DHT22;51687;52.160;5.298;2023-03-23T07:18:20;14.70;73.50
43995;DHT22;51687;52.160;5.298;2023-03-23T07:20:50;14.70;73.40
43995;DHT22;51687;52.160;5.298;2023-03-23T07:23:17;14.70;73.30
43995;DHT22;51687;52.160;5.298;2023-03-23T07:25:43;14.70;73.00
43995;DHT22;51687;52.160;5.298;2023-03-23T07:28:10;14.70;73.00
43995;DHT22;51687;52.160;5.298;2023-03-23T07:30:36;14.70;73.30
43995;DHT22;51687;52.160;5.298;2023-03-23T07:33:07;14.70;73.60
43995;DHT22;51687;52.160;5.298;2023-03-23T07:35:33;14.80;73.60
43995;DHT22;51687;52.160;5.298;2023-03-23T07:37:59;14.80;73.40
43995;DHT22;51687;52.160;5.298;2023-03-23T07:40:25;14.80;73.50
43995;DHT22;51687;52.160;5.298;2023-03-23T07:42:54;14.80;73.40
43995;DHT22;51687;52.160;5.298;2023-03-23T07:45:21;14.80;73.00
43995;DHT22;51687;52.160;5.298;2023-03-23T07:47:47;14.90;72.90
43995;DHT22;51687;52.160;5.298;2023-03-23T07:50:12;14.80;72.70
43995;DHT22;51687;52.160;5.298;2023-03-23T07:52:39;14.80;72.50
43995;DHT22;51687;52.160;5.298;2023-03-23T07:55:08;14.80;72.30
43995;DHT22;51687;52.160;5.298;2023-03-23T07:57:35;14.80;72.30
43995;DHT22;51687;52.160;5.298;2023-03-23T08:00:01;14.80;72.20
43995;DHT22;51687;52.160;5.298;2023-03-23T08:02:28;14.70;72.50
43995;DHT22;51687;52.160;5.298;2023-03-23T08:04:57;14.70;72.70
43995;DHT22;51687;52.160;5.298;2023-03-23T08:07:26;14.70;72.50
43995;DHT22;51687;52.160;5.298;2023-03-23T08:09:51;14.60;72.80
43995;DHT22;51687;52.160;5.298;2023-03-23T08:12:17;14.60;73.20
43995;DHT22;51687;52.160;5.298;2023-03-23T08:14:43;14.60;73.40
43995;DHT22;51687;52.160;5.298;2023-03-23T08:17:09;14.60;73.10
43995;DHT22;51687;52.160;5.298;2023-03-23T08:19:35;14.60;73.00
43995;DHT22;51687;52.160;5.298;2023-03-23T08:22:05;14.60;72.70
43995;DHT22;51687;52.160;5.298;2023-03-23T08:24:32;14.70;72.40
43995;DHT22;51687;52.160;5.298;2023-03-23T08:26:59;14.70;72.30
43995;DHT22;51687;52.160;5.298;2023-03-23T08:29:25;14.70;72.30
43995;DHT22;51687;52.160;5.298;2023-03-23T08:31:51;14.70;72.10
43995;DHT22;51687;52.160;5.298;2023-03-23T08:34:16;14.70;71.90
43995;DHT22;51687;52.160;5.298;2023-03-23T08:36:42;14.80;72.10
43995;DHT22;51687;52.160;5.298;2023-03-23T08:39:10;14.80;72.20
43995;DHT22;51687;52.160;5.298;2023-03-23T08:41:35;14.80;72.00
43995;DHT22;51687;52.160;5.298;2023-03-23T08:44:01;14.90;72.10
43995;DHT22;51687;52.160;5.298;2023-03-23T08:46:28;14.90;71.60
43995;DHT22;51687;52.160;5.298;2023-03-23T08:48:54;14.90;71.00
43995;DHT22;51687;52.160;5.298;2023-03-23T08:51:20;14.90;70.90
43995;DHT22;51687;52.160;5.298;2023-03-23T08:53:45;14.90;70.90
43995;DHT22;51687;52.160;5.298;2023-03-23T08:56:11;14.90;71.00
43995;DHT22;51687;52.160;5.298;2023-03-23T08:58:38;14.90;71.30
43995;DHT22;51687;52.160;5.298;2023-03-23T09:01:06;14.90;71.50
43995;DHT22;51687;52.160;5.298;2023-03-23T09:03:33;15.00;71.80
43995;DHT22;51687;52.160;5.298;2023-03-23T09:06:05;15.00;71.80
43995;DHT22;51687;52.160;5.298;2023-03-23T09:08:31;15.00;71.90
43995;DHT22;51687;52.160;5.298;2023-03-23T09:11:06;15.00;71.60
43995;DHT22;51687;52.160;5.298;2023-03-23T09:13:33;14.90;70.90
43995;DHT22;51687;52.160;5.298;2023-03-23T09:15:59;14.90;70.60
43995;DHT22;51687;52.160;5.298;2023-03-23T09:18:26;14.90;70.70
43995;DHT22;51687;52.160;5.298;2023-03-23T09:20:54;14.90;70.40
43995;DHT22;51687;52.160;5.298;2023-03-23T09:23:20;14.90;70.00
43995;DHT22;51687;52.160;5.298;2023-03-23T09:25:46;14.90;69.90
43995;DHT22;51687;52.160;5.298;2023-03-23T09:28:12;14.90;70.50
43995;DHT22;51687;52.160;5.298;2023-03-23T09:30:39;15.00;70.20
43995;DHT22;51687;52.160;5.298;2023-03-23T09:33:07;15.00;69.30
43995;DHT22;51687;52.160;5.298;2023-03-23T09:35:34;15.00;68.50
43995;DHT22;51687;52.160;5.298;2023-03-23T09:38:02;15.00;68.60
43995;DHT22;51687;52.160;5.298;2023-03-23T09:40:58;15.00;68.60
43995;DHT22;51687;52.160;5.298;2023-03-23T09:43:57;15.10;67.30
43995;DHT22;51687;52.160;5.298;2023-03-23T09:46:55;15.10;68.70
43995;DHT22;51687;52.160;5.298;2023-03-23T09:49:43;15.20;67.30
43995;DHT22;51687;52.160;5.298;2023-03-23T09:52:13;15.20;65.40
43995;DHT22;51687;52.160;5.298;2023-03-23T09:54:42;15.20;65.20
43995;DHT22;51687;52.160;5.298;2023-03-23T10:00:19;15.10;64.40
43995;DHT22;51687;52.160;5.298;2023-03-23T10:05:39;15.00;64.50
43995;DHT22;51687;52.160;5.298;2023-03-23T10:08:20;15.00;63.90
43995;DHT22;51687;52.160;5.298;2023-03-23T10:16:20;15.10;64.70
43995;DHT22;51687;52.160;5.298;2023-03-23T10:18:54;15.10;64.30
43995;DHT22;51687;52.160;5.298;2023-03-23T10:21:23;15.10;63.60
43995;DHT22;51687;52.160;5.298;2023-03-23T10:24:02;15.20;62.90
43995;DHT22;51687;52.160;5.298;2023-03-23T10:31:48;15.20;61.80
43995;DHT22;51687;52.160;5.298;2023-03-23T10:34:41;15.20;61.40
43995;DHT22;51687;52.160;5.298;2023-03-23T10:37:11;15.20;61.10
43995;DHT22;51687;52.160;5.298;2023-03-23T10:39:58;15.10;61.70
43995;DHT22;51687;52.160;5.298;2023-03-23T10:42:33;15.20;61.50
43995;DHT22;51687;52.160;5.298;2023-03-23T10:45:11;15.20;61.90
43995;DHT22;51687;52.160;5.298;2023-03-23T10:47:41;15.20;62.00
43995;DHT22;51687;52.160;5.298;2023-03-23T10:50:18;15.30;62.20
43995;DHT22;51687;52.160;5.298;2023-03-23T10:52:48;15.40;62.50
43995;DHT22;51687;52.160;5.298;2023-03-23T10:55:19;15.40;60.90
43995;DHT22;51687;52.160;5.298;2023-03-23T11:00:27;15.40;59.40
43995;DHT22;51687;52.160;5.298;2023-03-23T11:03:18;15.40;58.70
43995;DHT22;51687;52.160;5.298;2023-03-23T11:05:52;15.40;59.10
43995;DHT22;51687;52.160;5.298;2023-03-23T11:08:27;15.40;59.80
43995;DHT22;51687;52.160;5.298;2023-03-23T11:11:11;15.50;60.30
43995;DHT22;51687;52.160;5.298;2023-03-23T11:13:42;15.60;59.20
43995;DHT22;51687;52.160;5.298;2023-03-23T11:16:10;15.60;58.80
43995;DHT22;51687;52.160;5.298;2023-03-23T11:18:42;15.60;58.50
43995;DHT22;51687;52.160;5.298;2023-03-23T11:21:12;15.60;58.80
43995;DHT22;51687;52.160;5.298;2023-03-23T11:23:41;15.60;58.50
43995;DHT22;51687;52.160;5.298;2023-03-23T11:26:27;15.60;58.30
43995;DHT22;51687;52.160;5.298;2023-03-23T11:31:38;15.60;57.70
43995;DHT22;51687;52.160;5.298;2023-03-23T11:37:05;15.60;58.20
43995;DHT22;51687;52.160;5.298;2023-03-23T11:39:53;15.70;57.70
43995;DHT22;51687;52.160;5.298;2023-03-23T11:42:24;15.70;59.10
43995;DHT22;51687;52.160;5.298;2023-03-23T12:36:57;15.80;57.60
43995;DHT22;51687;52.160;5.298;2023-03-23T12:48:00;16.20;58.80
43995;DHT22;51687;52.160;5.298;2023-03-23T12:50:32;16.30;58.40
43995;DHT22;51687;52.160;5.298;2023-03-23T12:53:11;16.30;57.60
43995;DHT22;51687;52.160;5.298;2023-03-23T12:56:02;16.30;58.10
43995;DHT22;51687;52.160;5.298;2023-03-23T12:58:36;16.30;58.40
43995;DHT22;51687;52.160;5.298;2023-03-23T13:01:18;16.30;58.30
43995;DHT22;51687;52.160;5.298;2023-03-23T13:06:37;16.50;57.90
43995;DHT22;51687;52.160;5.298;2023-03-23T13:09:58;16.60;58.60
43995;DHT22;51687;52.160;5.298;2023-03-23T13:12:26;16.60;58.60
43995;DHT22;51687;52.160;5.298;2023-03-23T13:20:32;16.80;57.30
43995;DHT22;51687;52.160;5.298;2023-03-23T13:23:16;16.80;56.90
43995;DHT22;51687;52.160;5.298;2023-03-23T13:25:50;16.70;57.30
43995;DHT22;51687;52.160;5.298;2023-03-23T13:28:26;16.70;56.80
43995;DHT22;51687;52.160;5.298;2023-03-23T13:30:59;16.80;57.30
43995;DHT22;51687;52.160;5.298;2023-03-23T13:33:29;16.80;57.50
43995;DHT22;51687;52.160;5.298;2023-03-23T13:35:56;16.90;58.20
43995;DHT22;51687;52.160;5.298;2023-03-23T13:38:27;16.90;57.50
43995;DHT22;51687;52.160;5.298;2023-03-23T13:40:56;17.00;57.70
43995;DHT22;51687;52.160;5.298;2023-03-23T13:43:34;17.00;56.80
43995;DHT22;51687;52.160;5.298;2023-03-23T13:49:03;17.10;56.20
43995;DHT22;51687;52.160;5.298;2023-03-23T13:57:02;17.20;54.80
43995;DHT22;51687;52.160;5.298;2023-03-23T14:02:21;17.20;54.10
43995;DHT22;51687;52.160;5.298;2023-03-23T14:04:42;17.20;54.20
43995;DHT22;51687;52.160;5.298;2023-03-23T14:07:16;17.30;54.50
43995;DHT22;51687;52.160;5.298;2023-03-23T14:09:44;17.20;54.40
43995;DHT22;51687;52.160;5.298;2023-03-23T14:12:20;17.30;55.00
43995;DHT22;51687;52.160;5.298;2023-03-23T14:14:50;17.30;54.80
43995;DHT22;51687;52.160;5.298;2023-03-23T14:17:19;17.30;55.90
43995;DHT22;51687;52.160;5.298;2023-03-23T14:19:54;17.30;59.20
43995;DHT22;51687;52.160;5.298;2023-03-23T14:22:37;17.20;61.30
43995;DHT22;51687;52.160;5.298;2023-03-23T14:25:18;17.20;61.80
43995;DHT22;51687;52.160;5.298;2023-03-23T14:27:46;17.10;64.30
43995;DHT22;51687;52.160;5.298;2023-03-23T14:52:59;17.10;64.30
43995;DHT22;51687;52.160;5.298;2023-03-23T14:55:26;17.50;65.80
43995;DHT22;51687;52.160;5.298;2023-03-23T14:58:05;17.60;65.70
43995;DHT22;51687;52.160;5.298;2023-03-23T15:00:41;17.60;66.00
43995;DHT22;51687;52.160;5.298;2023-03-23T15:03:12;17.60;64.20
43995;DHT22;51687;52.160;5.298;2023-03-23T15:05:46;17.70;64.20
43995;DHT22;51687;52.160;5.298;2023-03-23T15:08:27;17.80;64.00
43995;DHT22;51687;52.160;5.298;2023-03-23T15:11:06;17.80;62.30
43995;DHT22;51687;52.160;5.298;2023-03-23T15:13:34;17.80;61.80
43995;DHT22;51687;52.160;5.298;2023-03-23T15:16:17;17.80;61.30
43995;DHT22;51687;52.160;5.298;2023-03-23T15:18:50;17.90;59.20
43995;DHT22;51687;52.160;5.298;2023-03-23T15:21:30;17.80;56.80
43995;DHT22;51687;52.160;5.298;2023-03-23T15:23:57;17.90;57.30
43995;DHT22;51687;52.160;5.298;2023-03-23T15:26:34;17.80;56.40
43995;DHT22;51687;52.160;5.298;2023-03-23T17:13:14;17.90;56.40
43995;DHT22;51687;52.160;5.298;2023-03-23T17:15:43;18.40;55.60
43995;DHT22;51687;52.160;5.298;2023-03-23T17:18:13;18.40;55.40
43995;DHT22;51687;52.160;5.298;2023-03-23T17:20:40;18.40;55.80
43995;DHT22;51687;52.160;5.298;2023-03-23T17:23:07;18.30;56.20
43995;DHT22;51687;52.160;5.298;2023-03-23T17:25:33;18.30;55.20
43995;DHT22;51687;52.160;5.298;2023-03-23T17:28:00;18.40;55.30
43995;DHT22;51687;52.160;5.298;2023-03-23T18:34:24;18.30;55.20
43995;DHT22;51687;52.160;5.298;2023-03-23T18:36:51;17.80;57.00
43995;DHT22;51687;52.160;5.298;2023-03-23T18:39:18;17.80;57.30
43995;DHT22;51687;52.160;5.298;2023-03-23T18:41:45;17.80;57.30
43995;DHT22;51687;52.160;5.298;2023-03-23T18:44:11;17.70;57.90
43995;DHT22;51687;52.160;5.298;2023-03-23T18:46:38;17.70;57.70
43995;DHT22;51687;52.160;5.298;2023-03-23T18:49:05;17.70;58.40
43995;DHT22;51687;52.160;5.298;2023-03-23T18:51:32;17.60;59.60
43995;DHT22;51687;52.160;5.298;2023-03-23T18:53:59;17.70;59.70
43995;DHT22;51687;52.160;5.298;2023-03-23T18:56:26;17.70;60.10
43995;DHT22;51687;52.160;5.298;2023-03-23T18:58:52;17.60;60.60
43995;DHT22;51687;52.160;5.298;2023-03-23T19:01:19;17.60;61.30
43995;DHT22;51687;52.160;5.298;2023-03-23T19:03:47;17.60;61.60
43995;DHT22;51687;52.160;5.298;2023-03-23T19:06:22;17.60;62.30
43995;DHT22;51687;52.160;5.298;2023-03-23T19:08:49;17.60;62.50
43995;DHT22;51687;52.160;5.298;2023-03-23T19:11:18;17.60;62.60
43995;DHT22;51687;52.160;5.298;2023-03-23T19:13:45;17.60;63.30
43995;DHT22;51687;52.160;5.298;2023-03-23T19:16:24;17.60;63.80
43995;DHT22;51687;52.160;5.298;2023-03-23T19:18:51;17.70;64.00
43995;DHT22;51687;52.160;5.298;2023-03-23T19:21:18;17.70;64.20
43995;DHT22;51687;52.160;5.298;2023-03-23T19:23:44;17.70;64.40
43995;DHT22;51687;52.160;5.298;2023-03-23T19:26:25;17.70;64.10
43995;DHT22;51687;52.160;5.298;2023-03-23T19:28:52;17.70;63.80
43995;DHT22;51687;52.160;5.298;2023-03-23T19:31:39;17.70;63.50
43995;DHT22;51687;52.160;5.298;2023-03-23T19:34:06;17.70;63.90
43995;DHT22;51687;52.160;5.298;2023-03-23T19:36:34;17.70;64.10
43995;DHT22;51687;52.160;5.298;2023-03-23T19:39:04;17.70;64.40
43995;DHT22;51687;52.160;5.298;2023-03-23T19:41:32;17.70;64.50
43995;DHT22;51687;52.160;5.298;2023-03-23T19:44:00;17.70;64.50
43995;DHT22;51687;52.160;5.298;2023-03-23T19:46:26;17.70;64.50
43995;DHT22;51687;52.160;5.298;2023-03-23T19:48:56;17.70;64.30
43995;DHT22;51687;52.160;5.298;2023-03-23T19:51:23;17.70;64.20
43995;DHT22;51687;52.160;5.298;2023-03-23T19:53:51;17.70;64.60
43995;DHT22;51687;52.160;5.298;2023-03-23T19:56:19;17.70;64.20
43995;DHT22;51687;52.160;5.298;2023-03-23T19:58:47;17.70;64.40
43995;DHT22;51687;52.160;5.298;2023-03-23T20:01:15;17.60;64.30
43995;DHT22;51687;52.160;5.298;2023-03-23T20:03:42;17.60;64.30
43995;DHT22;51687;52.160;5.298;2023-03-23T20:06:12;17.60;64.30
43995;DHT22;51687;52.160;5.298;2023-03-23T20:08:42;17.60;64.70
43995;DHT22;51687;52.160;5.298;2023-03-23T20:11:12;17.60;64.70
43995;DHT22;51687;52.160;5.298;2023-03-23T20:13:40;17.50;64.60
43995;DHT22;51687;52.160;5.298;2023-03-23T20:16:07;17.50;64.60
43995;DHT22;51687;52.160;5.298;2023-03-23T20:18:35;17.40;64.80
43995;DHT22;51687;52.160;5.298;2023-03-23T20:21:10;17.40;65.20
43995;DHT22;51687;52.160;5.298;2023-03-23T20:23:39;17.30;65.80
43995;DHT22;51687;52.160;5.298;2023-03-23T20:26:18;17.30;65.90
43995;DHT22;51687;52.160;5.298;2023-03-23T20:28:46;17.30;65.80
43995;DHT22;51687;52.160;5.298;2023-03-23T20:31:14;17.20;65.90
43995;DHT22;51687;52.160;5.298;2023-03-23T20:33:50;17.20;66.10
43995;DHT22;51687;52.160;5.298;2023-03-23T20:36:31;17.20;66.10
43995;DHT22;51687;52.160;5.298;2023-03-23T20:39:10;17.20;65.80
43995;DHT22;51687;52.160;5.298;2023-03-23T20:41:38;17.10;66.20
43995;DHT22;51687;52.160;5.298;2023-03-23T20:44:07;17.10;66.40
43995;DHT22;51687;52.160;5.298;2023-03-23T20:46:35;17.00;66.50
43995;DHT22;51687;52.160;5.298;2023-03-23T20:49:02;17.00;66.70
43995;DHT22;51687;52.160;5.298;2023-03-23T20:51:31;17.00;66.80
43995;DHT22;51687;52.160;5.298;2023-03-23T20:53:59;17.00;66.90
43995;DHT22;51687;52.160;5.298;2023-03-23T20:56:27;17.00;66.70
43995;DHT22;51687;52.160;5.298;2023-03-23T20:58:54;17.00;66.80
43995;DHT22;51687;52.160;5.298;2023-03-23T21:01:21;16.90;66.90
43995;DHT22;51687;52.160;5.298;2023-03-23T21:03:48;16.90;67.40